Kurten, TX (77862)

4:17 PM CDT on September 01, 2014 (GMT -0500)
Kindt Farms | Change Station
CLOSE
Current Station
Personal Weather Station
Location: Bryan, TX
Elevation: 322 ft
Nearby Weather Stations

Elev 322 ft 30.77 °N, 96.25 °W | Updated 1 minute ago

Partly Cloudy
Partly Cloudy
97.0 °F
Feels Like 104 °F
N
5.3
Wind Variable Wind from SSE

Today
High -- | Low -- °F
--% Chance of Precip.
Yesterday
High -- | Low -- °F
Precip. -- in
7:01 AM 7:48 PM
Waxing Crescent, 44% visible
Pressure 29.88 in
Visibility 10.0 miles
Clouds Clear
Heat Index 104 °F
Dew Point 69 °F
Humidity 41%
Rainfall 0.00 in
Snow Depth Not available.
UV 7 out of 12
Pollen 6.40 out of 12
Air Quality Not available.
Flu Activity Not available.
METAR KCFD 012055Z AUTO 14011KT 10SM CLR 36/20 A2988 RMK AO2 T03580204

More Conditions Fewer Conditions

Pressure 29.88 in
Visibility 10.0 miles
Clouds Clear
Heat Index 104 °F
Dew Point 69 °F
Humidity 41%
Rainfall 0.00 in
Snow Depth Not available.
UV 7 out of 12
Pollen 6.40 out of 12
Air Quality Not available.
Flu Activity Not available.
METAR KCFD 012055Z AUTO 14011KT 10SM CLR 36/20 A2988 RMK AO2 T03580204

More Conditions Fewer Conditions

10-Day Weather Forecast

Almanac

Astronomy

Sep. 01, 2014 Rise Set
Actual Time 7:01 AM CDT 7:48 PM CDT
Civil Twilight 6:36 AM CDT 8:12 PM CDT
Nautical Twilight 6:07 AM CDT 8:41 PM CDT
Astronomical Twilight 5:38 AM CDT 9:11 PM CDT
Moon 1:21 PM CDT No Moon Set
Length of Visible Light 13h 35m
Length of Day
12h 46m
Tomorrow will be 1m 48s shorter.
Waxing Crescent, 44% of the Moon is Illuminated
Today
Waxing Crescent
Sep 2
First Quarter
Sep 8
Full
Sep 15
Last Quarter
Sep 24
New

Today's Extremes

State Highs State Lows

Community

WunderPhotos

Upload Photos

1,749,409 photos uploaded!

WunderBlogs® & News

Nearby

Snow Depth

Station Depth Elevation
No new snow has been reported.

Earthquake Activity

City Distance Mag. Time & Date
No recent earthquake activity has been reported nearby.
Minimum magnitude displayed is 2.5.

Coastal Water Temperatures

Place Temperature
No Stations Reporting

Nearby Weather Stations